Time;durP1;ratioP1;P1;durP2;ratioP2;P2;SDS_P1;SDS_P2;PMS_P1;PMS_P2;Temp;Humidity;BMP_temperature;BMP_pressure;BME280_temperature;BME280_humidity;BME280_pressure;Samples;Min_cycle;Max_cycle;Signal;HPM_P1;HPM_P2
2022/03/04 00:02:16;;;;;;;47.85;22.02;;;;;;;-0.28;100.00;99968.63;4922116;29;20366;-77
2022/03/04 00:05:00;;;;;;;43.67;22.05;;;;;;;-0.23;100.00;99967.00;4921878;29;20427;-77
2022/03/04 00:07:45;;;;;;;46.75;23.15;;;;;;;-0.19;100.00;99968.81;4894750;29;20040;-77
2022/03/04 00:10:30;;;;;;;41.58;20.80;;;;;;;-0.15;100.00;99977.47;4921743;29;20047;-77
2022/03/04 00:13:14;;;;;;;42.92;20.83;;;;;;;-0.07;100.00;99974.22;4921581;29;20463;-77
2022/03/04 00:15:59;;;;;;;43.33;21.42;;;;;;;-0.07;100.00;99979.34;4907544;29;20040;-77
2022/03/04 00:18:43;;;;;;;46.60;22.45;;;;;;;-0.10;100.00;99991.31;4907344;29;20443;-77
2022/03/04 00:21:28;;;;;;;55.90;24.60;;;;;;;-0.10;100.00;99987.06;4921438;29;20047;-77
2022/03/04 00:24:12;;;;;;;40.25;21.92;;;;;;;-0.11;100.00;99985.28;4907556;29;20451;-77
2022/03/04 00:26:56;;;;;;;45.13;20.35;;;;;;;-0.10;100.00;99992.19;4906469;29;20423;-77
2022/03/04 00:29:40;;;;;;;41.80;22.58;;;;;;;-0.20;100.00;99979.94;4893809;29;20396;-77
2022/03/04 00:32:28;;;;;;;46.42;23.92;;;;;;;-0.17;100.00;99984.28;4921296;29;20044;-77
2022/03/04 00:35:13;;;;;;;45.38;23.13;;;;;;;-0.09;100.00;99982.75;4906987;29;20044;-77
2022/03/04 00:37:57;;;;;;;48.53;24.08;;;;;;;-0.12;100.00;99990.41;4891394;29;20060;-77
2022/03/04 00:40:41;;;;;;;48.83;24.58;;;;;;;-0.18;100.00;99992.88;4921078;29;20127;-77
2022/03/04 00:43:26;;;;;;;45.28;22.33;;;;;;;-0.14;100.00;99984.34;4907148;29;20040;-77
2022/03/04 00:46:11;;;;;;;43.50;22.10;;;;;;;-0.06;100.00;99985.41;4920959;29;20431;-77
2022/03/04 00:48:56;;;;;;;45.65;22.23;;;;;;;-0.01;100.00;99982.06;4920841;29;20052;-77
2022/03/04 00:51:40;;;;;;;43.55;21.55;;;;;;;0.08;100.00;99983.09;4906710;29;20142;-77
2022/03/04 00:54:25;;;;;;;46.72;22.98;;;;;;;0.01;100.00;99976.09;4906893;29;20427;-77
2022/03/04 00:57:09;;;;;;;41.70;21.77;;;;;;;0.06;100.00;99977.03;4920710;29;20048;-77
2022/03/04 00:59:54;;;;;;;39.25;21.25;;;;;;;0.14;100.00;99983.22;4906761;29;20055;-77
2022/03/04 01:02:39;;;;;;;42.67;21.25;;;;;;;0.06;100.00;99977.91;4906542;29;20099;-77
2022/03/04 01:05:24;;;;;;;39.55;21.38;;;;;;;0.12;100.00;99982.31;4906533;29;20044;-77
2022/03/04 01:08:09;;;;;;;44.58;22.13;;;;;;;0.02;100.00;99973.53;4920619;29;20044;-77
2022/03/04 01:10:54;;;;;;;50.58;24.42;;;;;;;-0.01;100.00;99982.06;4906305;29;20350;-77
2022/03/04 01:13:39;;;;;;;41.75;21.55;;;;;;;0.08;100.00;99975.38;4920454;29;20048;-77
2022/03/04 01:16:25;;;;;;;48.08;22.77;;;;;;;0.11;100.00;99975.44;4906460;29;20052;-77
2022/03/04 01:19:09;;;;;;;41.33;22.00;;;;;;;-0.02;100.00;99977.75;4920290;29;20135;-77
2022/03/04 01:21:54;;;;;;;43.10;21.67;;;;;;;0.09;100.00;99966.78;4920273;29;20055;-77
2022/03/04 01:24:38;;;;;;;43.63;22.10;;;;;;;0.06;100.00;99975.31;4920350;29;20602;-77
2022/03/04 01:27:23;;;;;;;42.03;22.23;;;;;;;0.11;100.00;99966.00;4906313;29;20060;-77
2022/03/04 01:30:09;;;;;;;43.97;22.20;;;;;;;0.08;100.00;99963.34;4906319;29;20391;-77
2022/03/04 01:32:54;;;;;;;41.15;21.48;;;;;;;0.04;100.00;99966.72;4919928;29;20044;-77
2022/03/04 01:35:38;;;;;;;42.33;22.55;;;;;;;-0.03;100.00;99968.31;4919988;29;20044;-77
2022/03/04 01:38:23;;;;;;;44.28;22.08;;;;;;;0.05;100.00;99959.84;4919954;29;20052;-77
2022/03/04 01:41:07;;;;;;;36.92;20.30;;;;;;;0.00;100.00;99949.47;4920008;29;20048;-77
2022/03/04 01:43:51;;;;;;;37.38;20.05;;;;;;;0.11;100.00;99966.00;4905897;29;20506;-77
2022/03/04 01:46:36;;;;;;;40.67;21.23;;;;;;;0.09;100.00;99964.22;4920066;29;20055;-77
2022/03/04 01:49:20;;;;;;;45.20;22.60;;;;;;;0.18;100.00;99959.25;4919714;29;20131;-77
2022/03/04 01:52:05;;;;;;;36.58;20.13;;;;;;;0.11;100.00;99963.41;4919772;29;20115;-77
2022/03/04 01:54:49;;;;;;;37.55;19.75;;;;;;;0.20;100.00;99973.03;4919616;29;20045;-77
2022/03/04 01:57:37;;;;;;;37.47;19.88;;;;;;;0.19;100.00;99963.56;4919826;29;20427;-77
2022/03/04 02:00:22;;;;;;;37.58;19.88;;;;;;;0.17;100.00;99958.38;4905707;29;20123;-77
2022/03/04 02:03:11;;;;;;;36.53;21.02;;;;;;;0.19;100.00;99961.84;4905737;29;20119;-77
2022/03/04 02:05:56;;;;;;;35.63;18.95;;;;;;;0.27;100.00;99956.00;4919684;29;20044;-77
2022/03/04 02:08:40;;;;;;;38.42;21.45;;;;;;;0.21;100.00;99964.47;4905470;29;20064;-77
2022/03/04 02:11:26;;;;;;;41.72;20.33;;;;;;;0.22;100.00;99964.47;4905334;29;20051;-77
2022/03/04 02:14:11;;;;;;;37.15;18.88;;;;;;;0.15;100.00;99954.91;4905510;29;20055;-77
2022/03/04 02:16:56;;;;;;;46.85;20.88;;;;;;;0.27;100.00;99954.28;4919509;29;20051;-77
2022/03/04 02:19:40;;;;;;;44.47;20.35;;;;;;;0.19;100.00;99956.69;4892357;29;20056;-77
2022/03/04 02:22:25;;;;;;;41.42;19.40;;;;;;;0.22;100.00;99953.31;4919683;29;20048;-77
2022/03/04 02:25:09;;;;;;;38.17;20.60;;;;;;;0.28;100.00;99948.28;4905372;29;20048;-77
2022/03/04 02:27:54;;;;;;;42.78;21.67;;;;;;;0.29;100.00;99946.56;4905500;29;20051;-77
2022/03/04 02:30:38;;;;;;;40.40;21.50;;;;;;;0.22;100.00;99946.44;4919428;29;20454;-77
2022/03/04 02:33:23;;;;;;;39.08;20.50;;;;;;;0.25;100.00;99949.94;4919906;29;20370;-77
2022/03/04 02:36:07;;;;;;;47.60;24.08;;;;;;;0.15;100.00;99941.16;4905632;29;20055;-77
2022/03/04 02:38:52;;;;;;;45.60;23.80;;;;;;;0.32;100.00;99949.19;4919517;29;20048;-77
2022/03/04 02:41:37;;;;;;;41.65;21.45;;;;;;;0.23;100.00;99942.19;4919654;29;20427;-77
2022/03/04 02:44:21;;;;;;;40.85;21.73;;;;;;;0.21;100.00;99936.97;4919290;29;20052;-77
2022/03/04 02:47:05;;;;;;;49.17;22.98;;;;;;;0.10;100.00;99933.34;4919580;29;20040;-77
2022/03/04 02:49:50;;;;;;;46.05;23.30;;;;;;;0.05;100.00;99929.81;4905307;29;20439;-77
2022/03/04 02:52:34;;;;;;;39.25;22.02;;;;;;;0.11;100.00;99941.94;4923109;29;20404;-77
2022/03/04 02:55:19;;;;;;;43.05;20.85;;;;;;;0.09;100.00;99941.03;4895752;29;20103;-77
2022/03/04 02:58:03;;;;;;;41.78;21.65;;;;;;;0.14;100.00;99947.16;4908703;29;20040;-77
2022/03/04 03:00:48;;;;;;;45.10;23.38;;;;;;;0.09;100.00;99933.31;4908816;29;20048;-77
2022/03/04 03:03:32;;;;;;;48.63;25.10;;;;;;;0.09;100.00;99947.06;4909011;29;20435;-77
2022/03/04 03:06:18;;;;;;;43.72;23.42;;;;;;;0.10;100.00;99937.59;4908707;29;20048;-77
2022/03/04 03:09:02;;;;;;;45.55;23.42;;;;;;;0.12;100.00;99956.56;4922650;29;20040;-77
2022/03/04 03:11:47;;;;;;;45.38;23.48;;;;;;;0.02;100.00;99941.75;4908471;29;20056;-77
2022/03/04 03:14:31;;;;;;;56.83;26.85;;;;;;;-0.03;100.00;99945.13;4922812;29;20119;-77
2022/03/04 03:17:15;;;;;;;51.20;25.20;;;;;;;0.07;100.00;99943.59;4922588;29;20045;-77
2022/03/04 03:19:59;;;;;;;50.28;27.35;;;;;;;0.03;100.00;99951.22;4922394;29;20044;-77
2022/03/04 03:22:44;;;;;;;54.88;26.67;;;;;;;0.05;100.00;99949.56;4908617;29;20454;-77
2022/03/04 03:25:28;;;;;;;50.20;25.08;;;;;;;-0.03;100.00;99959.72;4922530;29;20447;-77
2022/03/04 03:28:13;;;;;;;56.42;28.30;;;;;;;-0.11;100.00;99954.38;4908267;29;20103;-77
2022/03/04 03:30:57;;;;;;;61.58;27.55;;;;;;;-0.18;100.00;99957.69;4922100;29;20040;-77
2022/03/04 03:33:43;;;;;;;53.95;28.17;;;;;;;-0.17;100.00;99956.84;4922170;29;20040;-77
2022/03/04 03:36:27;;;;;;;57.47;27.20;;;;;;;-0.20;100.00;99955.91;4908446;29;20058;-77
2022/03/04 03:39:12;;;;;;;56.35;27.50;;;;;;;-0.26;100.00;99954.06;4908212;29;20044;-77
2022/03/04 03:41:56;;;;;;;58.00;28.65;;;;;;;-0.25;100.00;99954.13;4922084;29;20067;-77
2022/03/04 03:44:41;;;;;;;60.70;28.85;;;;;;;-0.32;100.00;99956.53;4908235;29;20044;-77
2022/03/04 03:47:26;;;;;;;63.35;28.42;;;;;;;-0.36;100.00;99953.00;4908109;29;20044;-77
2022/03/04 03:50:12;;;;;;;56.25;26.55;;;;;;;-0.28;100.00;99959.19;4921988;29;20052;-77
2022/03/04 03:52:56;;;;;;;57.60;28.10;;;;;;;-0.29;100.00;99948.88;4921681;29;20040;-78
2022/03/04 03:55:41;;;;;;;59.22;30.05;;;;;;;-0.36;100.00;99949.56;4908001;29;20454;-78
2022/03/04 03:58:26;;;;;;;55.83;27.60;;;;;;;-0.21;100.00;99964.47;4907689;29;20100;-78
2022/03/04 04:01:11;;;;;;;62.45;29.75;;;;;;;-0.21;100.00;99955.03;4921804;29;20039;-78
2022/03/04 04:03:55;;;;;;;62.28;28.70;;;;;;;-0.19;100.00;99957.66;4921679;29;20043;-78
2022/03/04 04:06:41;;;;;;;60.08;28.02;;;;;;;-0.24;100.00;99954.97;4921640;29;20047;-78
2022/03/04 04:09:26;;;;;;;55.83;28.70;;;;;;;-0.30;100.00;99954.84;4907557;29;20048;-77
2022/03/04 04:12:10;;;;;;;56.22;27.70;;;;;;;-0.19;100.00;99963.69;4921647;29;20447;-78
2022/03/04 04:14:54;;;;;;;55.15;28.83;;;;;;;-0.07;100.00;99963.03;4907427;29;20110;-76
2022/03/04 04:17:39;;;;;;;55.08;28.30;;;;;;;-0.11;100.00;99964.69;4921522;29;20052;-78
2022/03/04 04:20:24;;;;;;;64.22;31.25;;;;;;;-0.19;100.00;99955.09;4907244;29;20131;-77
2022/03/04 04:23:08;;;;;;;70.65;33.03;;;;;;;-0.27;100.00;99962.63;4907269;29;20044;-77
2022/03/04 04:25:52;;;;;;;61.50;31.23;;;;;;;-0.19;100.00;99957.66;4907239;29;20435;-78
2022/03/04 04:28:36;;;;;;;63.58;31.55;;;;;;;-0.13;100.00;99968.06;4894243;29;20048;-77
2022/03/04 04:31:21;;;;;;;60.75;29.92;;;;;;;-0.11;100.00;99961.25;4921215;29;20044;-77
2022/03/04 04:34:05;;;;;;;58.42;29.42;;;;;;;0.03;100.00;99964.09;4921131;29;20351;-77
2022/03/04 04:36:50;;;;;;;65.05;30.63;;;;;;;0.01;100.00;99958.06;4920960;29;20048;-78
2022/03/04 04:39:35;;;;;;;71.18;33.40;;;;;;;0.09;100.00;99965.09;4906996;29;20052;-78
2022/03/04 04:42:19;;;;;;;60.50;32.10;;;;;;;0.06;100.00;99959.88;4921396;29;20131;-78
2022/03/04 04:45:04;;;;;;;58.20;31.27;;;;;;;-0.01;100.00;99964.03;4920986;29;20099;-78
2022/03/04 04:47:48;;;;;;;62.88;31.30;;;;;;;-0.10;100.00;99950.09;4920697;29;20048;-77
2022/03/04 04:50:33;;;;;;;62.97;30.65;;;;;;;-0.01;100.00;99958.88;4906765;29;20047;-77
2022/03/04 04:53:18;;;;;;;68.82;30.40;;;;;;;-0.07;100.00;99950.16;4920887;29;20044;-77
2022/03/04 04:56:04;;;;;;;64.75;30.15;;;;;;;-0.03;100.00;99962.28;4893593;29;20462;-78
2022/03/04 04:58:49;;;;;;;73.75;33.53;;;;;;;-0.13;100.00;99961.22;4906457;29;20040;-78
2022/03/04 05:01:33;;;;;;;76.80;32.70;;;;;;;-0.07;100.00;99960.47;4920683;29;20044;-77
2022/03/04 05:04:17;;;;;;;66.05;32.53;;;;;;;0.05;100.00;99954.69;4906447;29;20064;-78
2022/03/04 05:07:03;;;;;;;69.05;32.55;;;;;;;-0.16;100.00;99957.69;4920399;29;20040;-78
2022/03/04 05:09:48;;;;;;;67.38;32.30;;;;;;;-0.11;100.00;99963.81;4906362;29;20347;-78
2022/03/04 05:12:32;;;;;;;77.53;35.80;;;;;;;-0.08;100.00;99969.03;4906343;29;20044;-78
2022/03/04 05:15:16;;;;;;;74.47;38.75;;;;;;;-0.06;100.00;99970.81;4906284;29;20072;-78
2022/03/04 05:18:01;;;;;;;74.38;36.35;;;;;;;0.03;100.00;99969.25;4893300;29;20100;-78
2022/03/04 05:20:45;;;;;;;69.45;34.10;;;;;;;-0.01;100.00;99969.19;4920184;29;20044;-78
2022/03/04 05:26:36;;;;;;;67.20;33.35;;;;;;;0.13;100.00;99978.88;4920244;29;20048;-78
2022/03/04 05:29:21;;;;;;;69.13;35.38;;;;;;;0.16;100.00;99972.13;4920141;29;20351;-78
2022/03/04 05:32:06;;;;;;;69.95;31.80;;;;;;;0.18;100.00;99974.72;4919895;29;20068;-78
2022/03/04 05:34:51;;;;;;;73.65;36.42;;;;;;;0.08;100.00;99975.38;4920043;29;20055;-78
2022/03/04 05:37:35;;;;;;;75.95;37.17;;;;;;;0.08;100.00;99981.38;4919808;29;20106;-77
2022/03/04 05:40:20;;;;;;;70.03;34.17;;;;;;;0.14;100.00;99988.38;4905768;29;20051;-78
2022/03/04 05:43:04;;;;;;;69.90;34.50;;;;;;;0.20;100.00;99991.94;4918802;29;20067;-77
2022/03/04 05:45:49;;;;;;;82.15;37.30;;;;;;;0.22;100.00;99979.94;4918025;29;20051;-77
2022/03/04 05:48:34;;;;;;;74.80;37.70;;;;;;;0.29;100.00;99991.22;4918297;29;20044;-77
2022/03/04 05:51:19;;;;;;;76.03;38.42;;;;;;;0.18;100.00;99995.31;4918436;29;20055;-78
2022/03/04 05:54:04;;;;;;;80.85;39.05;;;;;;;0.17;100.00;100007.34;4918448;29;20502;-78
2022/03/04 05:56:48;;;;;;;81.20;38.97;;;;;;;0.11;100.00;99989.19;4918219;29;20051;-78
2022/03/04 05:59:32;;;;;;;78.00;40.17;;;;;;;0.25;100.00;99993.72;4918429;29;20107;-78
2022/03/04 06:02:17;;;;;;;78.43;39.60;;;;;;;0.40;100.00;99997.47;4919409;29;20048;-78
2022/03/04 06:05:01;;;;;;;85.38;42.28;;;;;;;0.44;100.00;99999.25;4919082;29;20048;-78
2022/03/04 06:07:46;;;;;;;78.68;38.70;;;;;;;0.36;100.00;100011.16;4905760;29;20359;-77
2022/03/04 06:10:31;;;;;;;92.10;40.50;;;;;;;0.38;100.00;100006.88;4905507;29;20081;-77
2022/03/04 06:13:15;;;;;;;87.85;41.47;;;;;;;0.38;100.00;100008.59;4892409;29;20056;-77
2022/03/04 06:16:00;;;;;;;89.35;41.05;;;;;;;0.46;100.00;100007.91;4906157;29;20044;-77
2022/03/04 06:18:45;;;;;;;84.88;42.72;;;;;;;0.46;100.00;100015.63;4892482;29;20055;-77
2022/03/04 06:21:29;;;;;;;91.20;45.17;;;;;;;0.44;100.00;100017.31;4919945;29;20079;-77
2022/03/04 06:24:14;;;;;;;106.40;54.40;;;;;;;0.52;100.00;100024.31;4892410;29;20431;-77
2022/03/04 06:26:58;;;;;;;83.82;41.30;;;;;;;0.51;100.00;100023.44;4923043;29;20044;-79
2022/03/04 06:29:46;;;;;;;85.20;43.88;;;;;;;0.64;100.00;100019.38;4896089;29;20044;-83
2022/03/04 06:32:31;;;;;;;94.50;45.22;;;;;;;0.79;100.00;100031.69;4936052;29;20107;-83
2022/03/04 06:35:21;;;;;;;96.85;43.78;;;;;;;0.64;100.00;100037.44;4933132;29;20054;-84
2022/03/04 06:38:13;;;;;;;80.40;39.10;;;;;;;0.58;100.00;99998.63;4931351;29;20083;-84
2022/03/04 06:41:00;;;;;;;92.78;43.20;;;;;;;0.52;100.00;99995.94;4930987;29;20072;-84
2022/03/04 06:43:51;;;;;;;90.53;43.75;;;;;;;0.72;100.00;100020.41;4910819;29;20083;-84
2022/03/04 06:46:39;;;;;;;107.70;47.10;;;;;;;0.62;100.00;100010.78;4924788;29;20447;-84
2022/03/04 06:49:23;;;;;;;105.63;48.35;;;;;;;0.77;100.00;100023.91;4911404;29;20040;-84
2022/03/04 06:52:12;;;;;;;88.32;41.85;;;;;;;0.84;100.00;100025.75;4925714;29;20048;-84
2022/03/04 06:54:58;;;;;;;94.72;43.78;;;;;;;1.17;100.00;100040.97;4923427;29;20048;-85
2022/03/04 06:57:46;;;;;;;88.43;42.72;;;;;;;1.24;100.00;100033.31;4923371;29;20044;-85
2022/03/04 07:00:31;;;;;;;84.70;39.42;;;;;;;1.21;100.00;100028.13;4923324;29;20398;-86
2022/03/04 07:03:16;;;;;;;83.60;41.83;;;;;;;1.30;100.00;100035.97;4923772;29;20040;-85
2022/03/04 07:06:02;;;;;;;96.15;46.00;;;;;;;1.28;100.00;100041.13;4909334;29;20055;-85
2022/03/04 07:08:47;;;;;;;107.40;53.97;;;;;;;1.44;100.00;100044.81;4923002;29;20048;-85
2022/03/04 07:11:32;;;;;;;118.43;57.08;;;;;;;1.44;100.00;100033.63;4922720;29;20112;-86
2022/03/04 07:14:17;;;;;;;121.43;60.25;;;;;;;1.62;100.00;100047.66;4922501;29;20067;-86
2022/03/04 07:17:01;;;;;;;111.22;53.83;;;;;;;1.76;100.00;100050.47;4922611;29;20107;-87
2022/03/04 07:19:45;;;;;;;114.10;53.40;;;;;;;1.62;100.00;100052.81;4922852;29;20036;-87
2022/03/04 07:22:30;;;;;;;102.90;50.25;;;;;;;1.75;100.00;100063.34;4922518;29;20059;-88
2022/03/04 07:25:18;;;;;;;101.53;53.67;;;;;;;1.85;100.00;100066.09;4906070;29;20068;-87
2022/03/04 07:28:03;;;;;;;91.00;46.80;;;;;;;1.96;100.00;100081.75;4908313;29;20103;-87
2022/03/04 07:30:48;;;;;;;96.68;48.28;;;;;;;1.71;100.00;100065.00;4922814;29;20067;-87
2022/03/04 07:33:33;;;;;;;97.72;47.63;;;;;;;1.71;100.00;100075.34;4922223;29;20503;-88
2022/03/04 07:36:17;;;;;;;131.38;58.97;;;;;;;1.72;100.00;100042.63;4921806;29;20383;-88
2022/03/04 07:39:02;;;;;;;148.05;57.80;;;;;;;1.80;100.00;100049.66;4922231;29;20048;-86
2022/03/04 07:41:51;;;;;;;165.38;63.38;;;;;;;1.85;100.00;100070.38;4908313;29;20048;-78
2022/03/04 07:44:45;;;;;;;85.28;40.75;;;;;;;1.87;100.00;100051.47;4921867;29;20044;-78
2022/03/04 07:47:29;;;;;;;83.50;43.13;;;;;;;1.99;100.00;100075.75;4921984;29;20059;-82
2022/03/04 07:50:15;;;;;;;128.88;59.10;;;;;;;1.93;100.00;100061.03;4921941;29;20075;-80
2022/03/04 07:53:00;;;;;;;98.22;48.85;;;;;;;1.99;100.00;100074.03;4907845;29;20052;-79
2022/03/04 07:55:44;;;;;;;94.72;45.47;;;;;;;2.19;100.00;100073.44;4922099;29;20064;-79
2022/03/04 07:58:29;;;;;;;91.18;42.03;;;;;;;2.20;100.00;100081.19;4922100;29;20052;-78
2022/03/04 08:01:13;;;;;;;79.30;39.92;;;;;;;2.13;100.00;100083.69;4922038;29;20087;-79
2022/03/04 08:03:58;;;;;;;81.03;42.53;;;;;;;1.85;100.00;100067.78;4921617;29;20463;-78
2022/03/04 08:06:43;;;;;;;73.10;39.17;;;;;;;2.03;100.00;100083.56;4921939;29;20107;-78
2022/03/04 08:09:28;;;;;;;74.45;37.00;;;;;;;1.87;100.00;100089.38;4922194;29;20468;-78
2022/03/04 08:12:13;;;;;;;80.03;40.38;;;;;;;2.19;100.00;100083.78;4921659;29;20060;-78
2022/03/04 08:14:57;;;;;;;97.13;47.90;;;;;;;2.16;100.00;100075.97;4921853;29;20056;-78
2022/03/04 08:17:41;;;;;;;93.10;45.88;;;;;;;2.18;100.00;100106.19;4908065;29;20044;-78
2022/03/04 08:20:26;;;;;;;76.55;39.70;;;;;;;2.05;100.00;100093.94;4907708;29;20044;-78
2022/03/04 08:23:11;;;;;;;64.82;34.58;;;;;;;1.95;100.00;100107.53;4921751;29;20414;-79
2022/03/04 08:26:02;;;;;;;69.00;35.95;;;;;;;2.00;100.00;100105.91;4921427;29;20115;-78
2022/03/04 08:28:47;;;;;;;74.55;35.35;;;;;;;2.14;100.00;100112.13;4907502;29;20044;-78
2022/03/04 08:31:31;;;;;;;64.63;35.67;;;;;;;2.15;100.00;100124.22;4921648;29;20048;-78
2022/03/04 08:34:16;;;;;;;67.28;37.20;;;;;;;1.96;100.00;100112.75;4921366;29;20041;-77
2022/03/04 08:37:00;;;;;;;62.30;33.92;;;;;;;1.96;100.00;100119.63;4921187;29;20048;-78
2022/03/04 08:39:45;;;;;;;77.55;36.20;;;;;;;1.94;100.00;100108.41;4921388;29;20044;-78
2022/03/04 08:42:30;;;;;;;52.13;27.80;;;;;;;2.08;100.00;100109.44;4921265;29;20044;-78
2022/03/04 08:45:15;;;;;;;54.08;28.38;;;;;;;2.30;100.00;100113.22;4921684;29;20437;-79
2022/03/04 08:47:59;;;;;;;55.70;27.73;;;;;;;2.41;100.00;100096.13;4920856;29;20040;-78
2022/03/04 08:50:43;;;;;;;46.38;26.92;;;;;;;2.85;100.00;100097.50;4906723;29;20340;-78
2022/03/04 08:53:28;;;;;;;51.03;27.33;;;;;;;3.11;100.00;100105.53;4920887;29;20048;-78
2022/03/04 08:56:12;;;;;;;45.00;25.42;;;;;;;3.26;100.00;100121.22;4920900;29;20122;-78
2022/03/04 08:58:56;;;;;;;40.72;24.25;;;;;;;3.22;100.00;100117.72;4920694;29;20428;-80
2022/03/04 09:01:40;;;;;;;45.00;25.60;;;;;;;3.39;100.00;100117.88;4921000;29;20363;-79
2022/03/04 09:04:25;;;;;;;93.88;37.00;;;;;;;3.01;100.00;100109.72;4920933;29;20048;-79
2022/03/04 09:07:09;;;;;;;44.15;25.30;;;;;;;3.15;100.00;100123.69;4920752;29;20063;-79
2022/03/04 09:09:54;;;;;;;44.15;24.80;;;;;;;2.94;100.00;100113.13;4920789;29;20115;-78
2022/03/04 09:12:39;;;;;;;55.25;28.33;;;;;;;3.04;100.00;100130.47;4920496;29;20056;-78
2022/03/04 09:15:24;;;;;;;146.38;56.03;;;;;;;2.69;100.00;100130.06;4920924;29;20048;-79
2022/03/04 09:18:08;;;;;;;52.83;28.75;;;;;;;2.93;100.00;100143.31;4920638;29;20411;-78
2022/03/04 09:20:52;;;;;;;84.20;33.88;;;;;;;2.88;100.00;100141.50;4920560;29;20044;-79
2022/03/04 09:23:37;;;;;;;44.38;25.90;;;;;;;3.04;100.00;100146.88;4920906;29;20423;-83
2022/03/04 09:26:22;;;;;;;59.70;30.20;;;;;;;2.54;100.00;100135.94;4920302;29;20108;-79
2022/03/04 09:29:06;;;;;;;49.15;26.55;;;;;;;3.01;100.00;100146.81;4906243;29;20040;-81
2022/03/04 09:31:51;;;;;;;43.83;25.92;;;;;;;3.06;100.00;100135.69;4920713;29;20044;-79
2022/03/04 09:34:35;;;;;;;44.25;26.15;;;;;;;3.11;100.00;100139.16;4920158;29;20044;-82
2022/03/04 09:37:20;;;;;;;60.55;29.65;;;;;;;3.04;100.00;100146.00;4920390;29;20056;-78
2022/03/04 09:40:08;;;;;;;65.88;32.63;;;;;;;3.18;100.00;100140.97;4920054;29;20052;-79
2022/03/04 09:42:54;;;;;;;63.97;33.65;;;;;;;3.12;100.00;100154.72;4906191;29;20063;-79
2022/03/04 09:45:38;;;;;;;42.97;25.88;;;;;;;3.14;100.00;100158.19;4906280;29;20043;-78
2022/03/04 09:48:24;;;;;;;46.88;28.70;;;;;;;3.27;100.00;100148.81;4920164;29;20123;-79
2022/03/04 09:51:08;;;;;;;43.72;26.05;;;;;;;3.21;100.00;100146.16;4920109;29;20052;-79
2022/03/04 09:53:53;;;;;;;39.22;23.38;;;;;;;3.26;100.00;100152.28;4920124;29;20047;-78
2022/03/04 09:56:38;;;;;;;59.70;28.27;;;;;;;3.44;100.00;100149.84;4920099;29;20172;-79
2022/03/04 09:59:22;;;;;;;42.33;25.25;;;;;;;3.48;100.00;100137.81;4892539;29;20103;-79
2022/03/04 10:02:07;;;;;;;47.33;28.20;;;;;;;3.40;100.00;100129.09;4920026;29;20065;-78
2022/03/04 10:05:02;;;;;;;34.10;21.02;;;;;;;3.72;100.00;100150.97;4919364;29;20040;-80
2022/03/04 10:07:48;;;;;;;48.72;24.88;;;;;;;3.79;100.00;100158.78;4913454;29;20351;-78
2022/03/04 10:10:33;;;;;;;74.72;27.40;;;;;;;3.75;100.00;100143.22;4918079;29;20048;-79
2022/03/04 10:13:18;;;;;;;30.05;18.67;;;;;;;3.96;100.00;100158.06;4903671;29;20055;-79
2022/03/04 10:16:03;;;;;;;25.80;15.45;;;;;;;4.02;100.00;100153.78;4903943;29;20423;-78
2022/03/04 10:19:04;;;;;;;23.70;13.95;;;;;;;4.14;100.00;100152.13;4890654;29;20044;-81
2022/03/04 10:21:54;;;;;;;20.70;12.15;;;;;;;3.92;100.00;100152.84;4890708;29;20063;-81
2022/03/04 10:24:39;;;;;;;25.70;15.38;;;;;;;3.82;100.00;100156.22;4918589;29;20044;-81
2022/03/04 10:27:24;;;;;;;19.05;11.63;;;;;;;3.96;100.00;100147.72;4918232;29;20048;-78
2022/03/04 10:30:09;;;;;;;16.30;10.43;;;;;;;4.20;100.00;100153.91;4919797;29;20056;-81
2022/03/04 10:33:08;;;;;;;56.78;18.70;;;;;;;4.11;100.00;100151.25;4919639;29;20100;-79
2022/03/04 10:36:12;;;;;;;17.63;10.23;;;;;;;4.25;100.00;100157.38;4919672;29;20087;-79
2022/03/04 10:39:08;;;;;;;16.23;9.95;;;;;;;4.37;100.00;100159.19;4919782;29;20095;-78
2022/03/04 10:41:52;;;;;;;18.95;10.90;;;;;;;4.26;100.00;100153.06;4905904;29;20048;-78
2022/03/04 10:44:37;;;;;;;16.92;9.93;;;;;;;4.36;100.00;100150.53;4919441;29;20079;-81
2022/03/04 10:47:21;;;;;;;19.75;11.32;;;;;;;4.50;100.00;100155.78;4905506;29;20131;-79
2022/03/04 10:50:06;;;;;;;18.15;10.35;;;;;;;4.47;100.00;100152.31;4919858;29;20123;-79
2022/03/04 10:53:00;;;;;;;17.90;10.60;;;;;;;3.96;100.00;100167.53;4919600;29;20052;-82
2022/03/04 10:55:53;;;;;;;18.98;12.35;;;;;;;4.02;100.00;100166.72;4892366;29;20494;-81
2022/03/04 10:58:39;;;;;;;475.08;181.15;;;;;;;4.30;100.00;100167.78;4905794;29;20044;-78
2022/03/04 11:01:24;;;;;;;153.77;42.85;;;;;;;3.93;100.00;100168.41;4919627;29;20052;-79
2022/03/04 11:04:08;;;;;;;33.03;14.02;;;;;;;3.67;100.00;100155.25;4919584;29;20427;-79
2022/03/04 11:06:52;;;;;;;65.43;21.70;;;;;;;3.99;100.00;100150.28;4919791;29;20040;-79
2022/03/04 11:09:36;;;;;;;45.15;19.10;;;;;;;3.86;100.00;100160.56;4919327;29;20040;-79
2022/03/04 11:12:21;;;;;;;60.72;24.30;;;;;;;4.13;100.00;100163.38;4894066;29;20052;-79
2022/03/04 11:15:06;;;;;;;53.17;31.40;;;;;;;3.90;100.00;100151.94;4895552;29;20050;-81
2022/03/04 11:17:52;;;;;;;21.77;12.45;;;;;;;3.80;100.00;100176.06;4922910;29;20439;-78
2022/03/04 11:20:39;;;;;;;27.85;15.32;;;;;;;3.70;100.00;100159.56;4909109;29;20420;-79
2022/03/04 11:23:30;;;;;;;13.75;9.73;;;;;;;3.88;100.00;100156.28;4922720;29;20052;-79
2022/03/04 11:26:19;;;;;;;14.02;9.23;;;;;;;3.81;100.00;100168.31;4922689;29;20052;-81
2022/03/04 11:29:05;;;;;;;16.95;9.98;;;;;;;3.89;100.00;100168.38;4922364;29;20044;-78
2022/03/04 11:31:50;;;;;;;19.65;10.43;;;;;;;3.87;100.00;100160.59;4908574;29;20048;-80
2022/03/04 11:34:44;;;;;;;19.15;10.73;;;;;;;4.05;100.00;100171.94;4922906;29;20071;-79
2022/03/04 11:37:30;;;;;;;22.38;14.02;;;;;;;3.80;100.00;100153.59;4908827;29;20127;-79
2022/03/04 11:40:33;;;;;;;14.02;8.68;;;;;;;4.00;100.00;100158.97;4922711;29;20450;-79
2022/03/04 11:43:18;;;;;;;14.95;9.68;;;;;;;4.08;100.00;100174.56;4922155;29;20384;-83
2022/03/04 11:46:03;;;;;;;13.25;10.05;;;;;;;4.23;100.00;100161.69;4922089;29;20414;-78
2022/03/04 11:49:08;;;;;;;11.50;7.05;;;;;;;4.39;100.00;100165.25;4922677;29;20040;-82
2022/03/04 11:52:07;;;;;;;12.13;7.05;;;;;;;4.40;100.00;100157.47;4922145;29;20087;-84
2022/03/04 11:54:52;;;;;;;25.15;12.15;;;;;;;4.21;100.00;100166.00;4922175;29;20063;-85
2022/03/04 11:57:40;;;;;;;13.85;8.05;;;;;;;4.45;100.00;100160.09;4922544;29;20044;-78
2022/03/04 12:00:26;;;;;;;13.38;8.80;;;;;;;4.33;100.00;100153.13;4922093;29;20055;-79
2022/03/04 12:03:14;;;;;;;10.65;7.68;;;;;;;4.14;100.00;100165.09;4921837;29;20052;-80
2022/03/04 12:06:01;;;;;;;13.63;8.93;;;;;;;4.09;100.00;100161.59;4921642;29;20075;-79
2022/03/04 12:08:45;;;;;;;13.30;8.30;;;;;;;4.09;100.00;100153.81;4921968;29;20048;-78
2022/03/04 12:11:30;;;;;;;10.90;7.38;;;;;;;3.88;100.00;100151.94;4921671;29;20056;-79
2022/03/04 12:14:15;;;;;;;16.27;9.70;;;;;;;4.30;100.00;100175.56;4921631;29;20464;-79
2022/03/04 12:16:59;;;;;;;17.45;11.82;;;;;;;4.26;100.00;100161.72;4922207;29;20141;-79
2022/03/04 12:19:44;;;;;;;21.98;13.88;;;;;;;4.28;100.00;100172.97;4921754;29;20056;-78
2022/03/04 12:22:44;;;;;;;21.08;13.73;;;;;;;4.17;100.00;100172.03;4907301;29;20060;-79
2022/03/04 12:25:53;;;;;;;20.65;13.13;;;;;;;3.94;100.00;100177.06;4921475;29;20044;-78
2022/03/04 12:28:46;;;;;;;24.98;15.25;;;;;;;3.83;100.00;100176.09;4921613;29;20067;-80
2022/03/04 12:31:39;;;;;;;28.92;19.73;;;;;;;3.68;100.00;100179.44;4921291;29;20059;-78
2022/03/04 12:34:30;;;;;;;20.92;14.45;;;;;;;3.85;100.00;100176.97;4907242;29;20055;-79
2022/03/04 12:37:15;;;;;;;24.25;16.25;;;;;;;3.90;100.00;100176.16;4907289;29;20048;-78
2022/03/04 12:40:02;;;;;;;24.10;16.13;;;;;;;3.91;100.00;100177.03;4907186;29;20363;-81